sensor_id;sensor_type;location;lat;lon;timestamp;temperature;humidity
55785;DHT22;41709;52.536;5.688;2023-09-12T00:00:56;20.70;90.60
55785;DHT22;41709;52.536;5.688;2023-09-12T00:03:23;20.70;90.70
55785;DHT22;41709;52.536;5.688;2023-09-12T00:05:56;20.70;90.70
55785;DHT22;41709;52.536;5.688;2023-09-12T00:08:22;20.70;90.80
55785;DHT22;41709;52.536;5.688;2023-09-12T00:13:26;20.70;91.00
55785;DHT22;41709;52.536;5.688;2023-09-12T00:15:52;20.70;91.00
55785;DHT22;41709;52.536;5.688;2023-09-12T00:18:17;20.70;90.90
55785;DHT22;41709;52.536;5.688;2023-09-12T00:20:43;20.70;90.80
55785;DHT22;41709;52.536;5.688;2023-09-12T00:23:08;20.70;91.10
55785;DHT22;41709;52.536;5.688;2023-09-12T00:25:34;20.70;90.80
55785;DHT22;41709;52.536;5.688;2023-09-12T00:28:00;20.70;90.70
55785;DHT22;41709;52.536;5.688;2023-09-12T00:30:25;20.70;90.80
55785;DHT22;41709;52.536;5.688;2023-09-12T00:32:51;20.70;90.80
55785;DHT22;41709;52.536;5.688;2023-09-12T00:35:16;20.80;90.90
55785;DHT22;41709;52.536;5.688;2023-09-12T00:37:42;20.70;90.80
55785;DHT22;41709;52.536;5.688;2023-09-12T00:40:08;20.70;90.80
55785;DHT22;41709;52.536;5.688;2023-09-12T00:42:33;20.60;90.80
55785;DHT22;41709;52.536;5.688;2023-09-12T00:44:59;20.70;90.80
55785;DHT22;41709;52.536;5.688;2023-09-12T00:47:26;20.60;90.80
55785;DHT22;41709;52.536;5.688;2023-09-12T00:49:53;20.60;90.80
55785;DHT22;41709;52.536;5.688;2023-09-12T00:52:19;20.60;90.80
55785;DHT22;41709;52.536;5.688;2023-09-12T00:54:46;20.60;90.80
55785;DHT22;41709;52.536;5.688;2023-09-12T00:57:11;20.60;90.70
55785;DHT22;41709;52.536;5.688;2023-09-12T00:59:37;20.60;90.80
55785;DHT22;41709;52.536;5.688;2023-09-12T01:02:03;20.50;90.70
55785;DHT22;41709;52.536;5.688;2023-09-12T01:04:29;20.50;90.60
55785;DHT22;41709;52.536;5.688;2023-09-12T01:06:55;20.50;90.60
55785;DHT22;41709;52.536;5.688;2023-09-12T01:09:20;20.50;90.60
55785;DHT22;41709;52.536;5.688;2023-09-12T01:11:46;20.60;90.60
55785;DHT22;41709;52.536;5.688;2023-09-12T01:14:12;20.40;90.60
55785;DHT22;41709;52.536;5.688;2023-09-12T01:16:37;20.40;90.70
55785;DHT22;41709;52.536;5.688;2023-09-12T01:19:04;20.40;90.70
55785;DHT22;41709;52.536;5.688;2023-09-12T01:29:34;20.30;90.80
55785;DHT22;41709;52.536;5.688;2023-09-12T01:32:00;20.20;90.70
55785;DHT22;41709;52.536;5.688;2023-09-12T01:34:26;20.20;90.70
55785;DHT22;41709;52.536;5.688;2023-09-12T01:36:52;20.20;90.70
55785;DHT22;41709;52.536;5.688;2023-09-12T01:39:18;20.20;90.80
55785;DHT22;41709;52.536;5.688;2023-09-12T01:41:46;20.20;90.80
55785;DHT22;41709;52.536;5.688;2023-09-12T01:44:12;20.20;90.80
55785;DHT22;41709;52.536;5.688;2023-09-12T01:46:39;20.10;90.80
55785;DHT22;41709;52.536;5.688;2023-09-12T01:49:05;20.10;90.90
55785;DHT22;41709;52.536;5.688;2023-09-12T01:51:33;20.10;90.90
55785;DHT22;41709;52.536;5.688;2023-09-12T01:54:00;20.10;90.80
55785;DHT22;41709;52.536;5.688;2023-09-12T01:56:26;20.10;90.80
55785;DHT22;41709;52.536;5.688;2023-09-12T01:58:51;20.10;90.80
55785;DHT22;41709;52.536;5.688;2023-09-12T02:01:17;20.00;90.80
55785;DHT22;41709;52.536;5.688;2023-09-12T02:03:43;20.00;90.90
55785;DHT22;41709;52.536;5.688;2023-09-12T02:06:08;20.00;90.90
55785;DHT22;41709;52.536;5.688;2023-09-12T02:08:34;20.00;90.90
55785;DHT22;41709;52.536;5.688;2023-09-12T02:10:59;20.00;91.00
55785;DHT22;41709;52.536;5.688;2023-09-12T02:13:25;20.00;91.00
55785;DHT22;41709;52.536;5.688;2023-09-12T02:15:58;19.90;90.90
55785;DHT22;41709;52.536;5.688;2023-09-12T02:18:24;19.90;90.90
55785;DHT22;41709;52.536;5.688;2023-09-12T02:20:50;19.90;91.00
55785;DHT22;41709;52.536;5.688;2023-09-12T02:23:15;19.90;91.00
55785;DHT22;41709;52.536;5.688;2023-09-12T02:25:41;19.90;90.90
55785;DHT22;41709;52.536;5.688;2023-09-12T02:28:06;19.80;90.90
55785;DHT22;41709;52.536;5.688;2023-09-12T02:30:32;19.90;91.00
55785;DHT22;41709;52.536;5.688;2023-09-12T02:32:57;19.80;91.00
55785;DHT22;41709;52.536;5.688;2023-09-12T02:35:23;19.80;91.10
55785;DHT22;41709;52.536;5.688;2023-09-12T02:37:49;19.80;91.10
55785;DHT22;41709;52.536;5.688;2023-09-12T02:40:14;19.80;91.10
55785;DHT22;41709;52.536;5.688;2023-09-12T02:42:40;19.80;91.10
55785;DHT22;41709;52.536;5.688;2023-09-12T02:45:06;19.70;91.10
55785;DHT22;41709;52.536;5.688;2023-09-12T02:47:32;19.80;91.10
55785;DHT22;41709;52.536;5.688;2023-09-12T02:49:57;19.70;91.10
55785;DHT22;41709;52.536;5.688;2023-09-12T02:52:23;19.70;91.10
55785;DHT22;41709;52.536;5.688;2023-09-12T02:54:48;19.70;91.10
55785;DHT22;41709;52.536;5.688;2023-09-12T02:57:14;19.70;91.10
55785;DHT22;41709;52.536;5.688;2023-09-12T02:59:39;19.70;91.20
55785;DHT22;41709;52.536;5.688;2023-09-12T03:02:05;19.70;91.20
55785;DHT22;41709;52.536;5.688;2023-09-12T03:04:31;19.70;91.20
55785;DHT22;41709;52.536;5.688;2023-09-12T03:06:56;19.60;91.20
55785;DHT22;41709;52.536;5.688;2023-09-12T03:09:22;19.60;91.20
55785;DHT22;41709;52.536;5.688;2023-09-12T03:11:49;19.60;91.10
55785;DHT22;41709;52.536;5.688;2023-09-12T03:14:15;19.60;91.10
55785;DHT22;41709;52.536;5.688;2023-09-12T03:16:41;19.60;91.20
55785;DHT22;41709;52.536;5.688;2023-09-12T03:19:06;19.60;91.30
55785;DHT22;41709;52.536;5.688;2023-09-12T03:21:32;19.50;91.30
55785;DHT22;41709;52.536;5.688;2023-09-12T03:23:57;19.50;91.30
55785;DHT22;41709;52.536;5.688;2023-09-12T03:26:23;19.50;91.40
55785;DHT22;41709;52.536;5.688;2023-09-12T03:28:51;19.50;91.50
55785;DHT22;41709;52.536;5.688;2023-09-12T03:31:18;19.50;91.60
55785;DHT22;41709;52.536;5.688;2023-09-12T03:33:44;19.40;91.60
55785;DHT22;41709;52.536;5.688;2023-09-12T03:36:16;19.40;91.60
55785;DHT22;41709;52.536;5.688;2023-09-12T03:38:42;19.40;91.60
55785;DHT22;41709;52.536;5.688;2023-09-12T03:41:08;19.40;91.60
55785;DHT22;41709;52.536;5.688;2023-09-12T03:43:34;19.40;91.70
55785;DHT22;41709;52.536;5.688;2023-09-12T03:45:59;19.40;91.70
55785;DHT22;41709;52.536;5.688;2023-09-12T03:48:25;19.30;91.60
55785;DHT22;41709;52.536;5.688;2023-09-12T03:50:51;19.30;91.70
55785;DHT22;41709;52.536;5.688;2023-09-12T03:53:17;19.30;91.70
55785;DHT22;41709;52.536;5.688;2023-09-12T03:55:43;19.30;91.70
55785;DHT22;41709;52.536;5.688;2023-09-12T03:58:08;19.30;91.70
55785;DHT22;41709;52.536;5.688;2023-09-12T04:00:34;19.30;91.60
55785;DHT22;41709;52.536;5.688;2023-09-12T04:03:00;19.20;91.60
55785;DHT22;41709;52.536;5.688;2023-09-12T04:05:26;19.20;91.60
55785;DHT22;41709;52.536;5.688;2023-09-12T04:07:52;19.20;91.70
55785;DHT22;41709;52.536;5.688;2023-09-12T04:10:19;19.20;91.70
55785;DHT22;41709;52.536;5.688;2023-09-12T04:12:44;19.20;91.80
55785;DHT22;41709;52.536;5.688;2023-09-12T04:15:10;19.10;91.90
55785;DHT22;41709;52.536;5.688;2023-09-12T04:17:36;19.10;91.90
55785;DHT22;41709;52.536;5.688;2023-09-12T04:20:01;19.10;91.90
55785;DHT22;41709;52.536;5.688;2023-09-12T04:22:27;19.10;91.90
55785;DHT22;41709;52.536;5.688;2023-09-12T04:24:54;19.10;92.10
55785;DHT22;41709;52.536;5.688;2023-09-12T04:27:19;19.10;92.10
55785;DHT22;41709;52.536;5.688;2023-09-12T04:29:45;19.00;92.20
55785;DHT22;41709;52.536;5.688;2023-09-12T04:32:11;19.00;92.30
55785;DHT22;41709;52.536;5.688;2023-09-12T04:34:37;19.00;92.30
55785;DHT22;41709;52.536;5.688;2023-09-12T04:37:02;19.00;92.30
55785;DHT22;41709;52.536;5.688;2023-09-12T04:39:28;19.00;92.30
55785;DHT22;41709;52.536;5.688;2023-09-12T04:41:55;19.00;92.40
55785;DHT22;41709;52.536;5.688;2023-09-12T04:44:21;18.90;92.40
55785;DHT22;41709;52.536;5.688;2023-09-12T04:46:46;18.90;92.40
55785;DHT22;41709;52.536;5.688;2023-09-12T04:49:12;18.90;92.50
55785;DHT22;41709;52.536;5.688;2023-09-12T04:51:37;18.90;92.40
55785;DHT22;41709;52.536;5.688;2023-09-12T04:54:03;18.90;92.50
55785;DHT22;41709;52.536;5.688;2023-09-12T04:56:29;18.90;92.60
55785;DHT22;41709;52.536;5.688;2023-09-12T04:58:54;18.90;92.60
55785;DHT22;41709;52.536;5.688;2023-09-12T05:01:20;18.90;92.60
55785;DHT22;41709;52.536;5.688;2023-09-12T05:03:46;18.90;92.50
55785;DHT22;41709;52.536;5.688;2023-09-12T05:06:12;18.90;92.50
55785;DHT22;41709;52.536;5.688;2023-09-12T05:08:38;18.90;92.50
55785;DHT22;41709;52.536;5.688;2023-09-12T05:11:04;18.90;92.50
55785;DHT22;41709;52.536;5.688;2023-09-12T05:13:30;18.90;92.50
55785;DHT22;41709;52.536;5.688;2023-09-12T05:15:56;18.90;92.40
55785;DHT22;41709;52.536;5.688;2023-09-12T05:18:24;18.90;92.50
55785;DHT22;41709;52.536;5.688;2023-09-12T05:20:50;18.90;92.40
55785;DHT22;41709;52.536;5.688;2023-09-12T05:23:16;18.90;92.40
55785;DHT22;41709;52.536;5.688;2023-09-12T05:25:41;18.90;92.40
55785;DHT22;41709;52.536;5.688;2023-09-12T05:28:07;18.90;92.40
55785;DHT22;41709;52.536;5.688;2023-09-12T05:30:33;18.90;92.40
55785;DHT22;41709;52.536;5.688;2023-09-12T05:32:58;18.90;92.40
55785;DHT22;41709;52.536;5.688;2023-09-12T05:35:24;18.90;92.30
55785;DHT22;41709;52.536;5.688;2023-09-12T05:37:50;18.90;92.20
55785;DHT22;41709;52.536;5.688;2023-09-12T05:40:16;18.90;92.10
55785;DHT22;41709;52.536;5.688;2023-09-12T05:42:42;18.90;92.00
55785;DHT22;41709;52.536;5.688;2023-09-12T05:45:08;18.90;91.80
55785;DHT22;41709;52.536;5.688;2023-09-12T05:47:34;18.90;92.00
55785;DHT22;41709;52.536;5.688;2023-09-12T05:49:59;18.80;92.20
55785;DHT22;41709;52.536;5.688;2023-09-12T05:52:26;18.90;92.00
55785;DHT22;41709;52.536;5.688;2023-09-12T05:54:51;18.80;92.10
55785;DHT22;41709;52.536;5.688;2023-09-12T05:57:17;18.90;92.20
55785;DHT22;41709;52.536;5.688;2023-09-12T05:59:43;18.90;92.20
55785;DHT22;41709;52.536;5.688;2023-09-12T06:02:09;18.90;92.40
55785;DHT22;41709;52.536;5.688;2023-09-12T06:04:35;18.90;92.50
55785;DHT22;41709;52.536;5.688;2023-09-12T06:07:02;18.90;92.60
55785;DHT22;41709;52.536;5.688;2023-09-12T06:09:28;18.80;92.60
55785;DHT22;41709;52.536;5.688;2023-09-12T06:11:54;18.80;92.70
55785;DHT22;41709;52.536;5.688;2023-09-12T06:14:19;18.80;92.80
55785;DHT22;41709;52.536;5.688;2023-09-12T06:16:45;18.90;92.90
55785;DHT22;41709;52.536;5.688;2023-09-12T06:19:11;18.90;93.30
55785;DHT22;41709;52.536;5.688;2023-09-12T06:21:36;18.90;93.00
55785;DHT22;41709;52.536;5.688;2023-09-12T06:24:13;19.00;93.10
55785;DHT22;41709;52.536;5.688;2023-09-12T06:26:40;18.90;93.10
55785;DHT22;41709;52.536;5.688;2023-09-12T06:29:06;19.00;93.10
55785;DHT22;41709;52.536;5.688;2023-09-12T06:31:32;19.00;93.20
55785;DHT22;41709;52.536;5.688;2023-09-12T06:33:58;19.10;93.30
55785;DHT22;41709;52.536;5.688;2023-09-12T06:36:28;19.20;93.40
55785;DHT22;41709;52.536;5.688;2023-09-12T06:38:55;19.30;93.30
55785;DHT22;41709;52.536;5.688;2023-09-12T06:41:21;19.40;93.30
55785;DHT22;41709;52.536;5.688;2023-09-12T06:43:47;19.40;93.20
55785;DHT22;41709;52.536;5.688;2023-09-12T06:46:13;19.60;92.90
55785;DHT22;41709;52.536;5.688;2023-09-12T06:48:39;19.70;92.80
55785;DHT22;41709;52.536;5.688;2023-09-12T06:51:06;19.80;92.70
55785;DHT22;41709;52.536;5.688;2023-09-12T06:53:31;19.90;92.50
55785;DHT22;41709;52.536;5.688;2023-09-12T06:55:57;20.00;92.20
55785;DHT22;41709;52.536;5.688;2023-09-12T06:58:24;20.10;92.20
55785;DHT22;41709;52.536;5.688;2023-09-12T07:00:50;20.20;91.90
55785;DHT22;41709;52.536;5.688;2023-09-12T07:03:16;20.30;91.60
55785;DHT22;41709;52.536;5.688;2023-09-12T07:05:42;20.40;91.60
55785;DHT22;41709;52.536;5.688;2023-09-12T07:08:08;20.50;91.40
55785;DHT22;41709;52.536;5.688;2023-09-12T07:10:34;20.70;91.20
55785;DHT22;41709;52.536;5.688;2023-09-12T07:13:01;20.60;90.80
55785;DHT22;41709;52.536;5.688;2023-09-12T07:15:26;20.60;91.00
55785;DHT22;41709;52.536;5.688;2023-09-12T07:17:52;20.70;91.20
55785;DHT22;41709;52.536;5.688;2023-09-12T07:20:18;20.60;91.20
55785;DHT22;41709;52.536;5.688;2023-09-12T07:22:46;20.60;91.30
55785;DHT22;41709;52.536;5.688;2023-09-12T07:25:13;20.60;91.50
55785;DHT22;41709;52.536;5.688;2023-09-12T07:27:39;20.70;91.30
55785;DHT22;41709;52.536;5.688;2023-09-12T07:30:06;20.70;91.40
55785;DHT22;41709;52.536;5.688;2023-09-12T07:32:32;20.70;91.30
55785;DHT22;41709;52.536;5.688;2023-09-12T07:34:58;20.70;91.30
55785;DHT22;41709;52.536;5.688;2023-09-12T07:37:23;20.70;91.20
55785;DHT22;41709;52.536;5.688;2023-09-12T07:39:49;20.70;91.60
55785;DHT22;41709;52.536;5.688;2023-09-12T07:42:14;20.70;91.20
55785;DHT22;41709;52.536;5.688;2023-09-12T07:44:40;20.70;91.20
55785;DHT22;41709;52.536;5.688;2023-09-12T07:47:07;20.70;91.40
55785;DHT22;41709;52.536;5.688;2023-09-12T07:49:32;20.70;91.50
55785;DHT22;41709;52.536;5.688;2023-09-12T07:51:58;20.70;91.40
55785;DHT22;41709;52.536;5.688;2023-09-12T07:54:24;20.70;91.40
55785;DHT22;41709;52.536;5.688;2023-09-12T07:56:49;20.80;91.40
55785;DHT22;41709;52.536;5.688;2023-09-12T07:59:15;20.80;91.20
55785;DHT22;41709;52.536;5.688;2023-09-12T08:01:40;20.80;91.20
55785;DHT22;41709;52.536;5.688;2023-09-12T08:04:06;20.80;91.10
55785;DHT22;41709;52.536;5.688;2023-09-12T08:06:32;20.80;91.00
55785;DHT22;41709;52.536;5.688;2023-09-12T08:08:58;20.70;91.10
55785;DHT22;41709;52.536;5.688;2023-09-12T08:11:24;20.70;91.10
55785;DHT22;41709;52.536;5.688;2023-09-12T08:13:50;20.70;91.20
55785;DHT22;41709;52.536;5.688;2023-09-12T08:16:16;20.70;91.30
55785;DHT22;41709;52.536;5.688;2023-09-12T08:18:41;20.70;91.40
55785;DHT22;41709;52.536;5.688;2023-09-12T08:21:07;20.70;91.50
55785;DHT22;41709;52.536;5.688;2023-09-12T08:23:33;20.70;91.50
55785;DHT22;41709;52.536;5.688;2023-09-12T08:25:59;20.70;91.50
55785;DHT22;41709;52.536;5.688;2023-09-12T08:28:25;20.80;91.70
55785;DHT22;41709;52.536;5.688;2023-09-12T08:30:51;20.80;91.60
55785;DHT22;41709;52.536;5.688;2023-09-12T08:33:16;20.90;91.90
55785;DHT22;41709;52.536;5.688;2023-09-12T08:35:42;20.90;91.90
55785;DHT22;41709;52.536;5.688;2023-09-12T08:38:08;20.90;91.90
55785;DHT22;41709;52.536;5.688;2023-09-12T08:40:34;21.00;91.70
55785;DHT22;41709;52.536;5.688;2023-09-12T08:43:01;21.10;91.60
55785;DHT22;41709;52.536;5.688;2023-09-12T08:45:29;21.10;91.70
55785;DHT22;41709;52.536;5.688;2023-09-12T08:47:57;21.20;91.60
55785;DHT22;41709;52.536;5.688;2023-09-12T08:50:23;21.30;91.40
55785;DHT22;41709;52.536;5.688;2023-09-12T08:52:50;21.40;91.60
55785;DHT22;41709;52.536;5.688;2023-09-12T08:55:16;21.50;90.90
55785;DHT22;41709;52.536;5.688;2023-09-12T08:57:43;21.50;90.80
55785;DHT22;41709;52.536;5.688;2023-09-12T09:00:10;21.50;90.60
55785;DHT22;41709;52.536;5.688;2023-09-12T09:02:40;21.50;90.50
55785;DHT22;41709;52.536;5.688;2023-09-12T09:05:07;21.60;90.70
55785;DHT22;41709;52.536;5.688;2023-09-12T09:07:41;21.60;90.70
55785;DHT22;41709;52.536;5.688;2023-09-12T09:10:18;21.70;90.60
55785;DHT22;41709;52.536;5.688;2023-09-12T09:12:45;21.60;90.60
55785;DHT22;41709;52.536;5.688;2023-09-12T09:17:46;21.70;90.40
55785;DHT22;41709;52.536;5.688;2023-09-12T09:20:22;21.80;90.50
55785;DHT22;41709;52.536;5.688;2023-09-12T09:22:57;21.90;90.40
55785;DHT22;41709;52.536;5.688;2023-09-12T09:25:23;21.90;89.90
55785;DHT22;41709;52.536;5.688;2023-09-12T09:27:49;22.00;89.30
55785;DHT22;41709;52.536;5.688;2023-09-12T09:30:15;22.00;89.30
55785;DHT22;41709;52.536;5.688;2023-09-12T09:32:40;22.10;89.60
55785;DHT22;41709;52.536;5.688;2023-09-12T09:35:07;22.10;90.00
55785;DHT22;41709;52.536;5.688;2023-09-12T09:37:33;22.20;90.00
55785;DHT22;41709;52.536;5.688;2023-09-12T09:39:58;22.20;90.00
55785;DHT22;41709;52.536;5.688;2023-09-12T09:42:24;22.30;89.20
55785;DHT22;41709;52.536;5.688;2023-09-12T09:44:54;22.40;89.20
55785;DHT22;41709;52.536;5.688;2023-09-12T09:47:19;22.50;89.10
55785;DHT22;41709;52.536;5.688;2023-09-12T09:49:45;22.40;87.80
55785;DHT22;41709;52.536;5.688;2023-09-12T09:52:12;22.40;87.00
55785;DHT22;41709;52.536;5.688;2023-09-12T09:54:43;22.50;86.80
55785;DHT22;41709;52.536;5.688;2023-09-12T09:57:09;22.60;87.70
55785;DHT22;41709;52.536;5.688;2023-09-12T09:59:35;22.60;88.30
55785;DHT22;41709;52.536;5.688;2023-09-12T10:02:00;22.70;88.10
55785;DHT22;41709;52.536;5.688;2023-09-12T10:04:28;22.70;86.20
55785;DHT22;41709;52.536;5.688;2023-09-12T10:06:56;22.80;86.50
55785;DHT22;41709;52.536;5.688;2023-09-12T10:09:23;22.90;86.80
55785;DHT22;41709;52.536;5.688;2023-09-12T10:11:51;22.90;85.20
55785;DHT22;41709;52.536;5.688;2023-09-12T10:14:19;23.00;85.80
55785;DHT22;41709;52.536;5.688;2023-09-12T10:16:47;23.10;85.80
55785;DHT22;41709;52.536;5.688;2023-09-12T10:19:25;23.20;85.60
55785;DHT22;41709;52.536;5.688;2023-09-12T10:24:46;23.40;85.60
55785;DHT22;41709;52.536;5.688;2023-09-12T10:27:12;23.40;85.50
55785;DHT22;41709;52.536;5.688;2023-09-12T10:29:38;23.40;85.30
55785;DHT22;41709;52.536;5.688;2023-09-12T10:32:05;23.40;84.10
55785;DHT22;41709;52.536;5.688;2023-09-12T10:34:32;23.50;85.30
55785;DHT22;41709;52.536;5.688;2023-09-12T10:36:58;23.60;85.00
55785;DHT22;41709;52.536;5.688;2023-09-12T10:39:27;23.60;84.80
55785;DHT22;41709;52.536;5.688;2023-09-12T10:41:54;23.70;83.90
55785;DHT22;41709;52.536;5.688;2023-09-12T10:44:20;23.70;85.20
55785;DHT22;41709;52.536;5.688;2023-09-12T10:46:47;23.70;85.70
55785;DHT22;41709;52.536;5.688;2023-09-12T10:49:15;23.80;85.50
55785;DHT22;41709;52.536;5.688;2023-09-12T10:51:45;23.90;84.70
55785;DHT22;41709;52.536;5.688;2023-09-12T10:54:16;24.00;84.10
55785;DHT22;41709;52.536;5.688;2023-09-12T10:57:10;24.10;83.50
55785;DHT22;41709;52.536;5.688;2023-09-12T11:02:32;24.20;83.30
55785;DHT22;41709;52.536;5.688;2023-09-12T11:04:59;24.20;83.30
55785;DHT22;41709;52.536;5.688;2023-09-12T11:12:41;24.30;82.10
55785;DHT22;41709;52.536;5.688;2023-09-12T11:15:08;24.40;82.20
55785;DHT22;41709;52.536;5.688;2023-09-12T11:17:39;24.40;82.60
55785;DHT22;41709;52.536;5.688;2023-09-12T11:20:05;24.50;82.60
55785;DHT22;41709;52.536;5.688;2023-09-12T11:22:37;24.60;81.60
55785;DHT22;41709;52.536;5.688;2023-09-12T11:25:15;24.60;81.80
55785;DHT22;41709;52.536;5.688;2023-09-12T11:28:01;24.60;80.00
55785;DHT22;41709;52.536;5.688;2023-09-12T11:30:28;24.70;80.40
55785;DHT22;41709;52.536;5.688;2023-09-12T11:32:57;24.60;78.30
55785;DHT22;41709;52.536;5.688;2023-09-12T11:35:25;24.60;79.30
55785;DHT22;41709;52.536;5.688;2023-09-12T11:37:54;24.60;80.60
55785;DHT22;41709;52.536;5.688;2023-09-12T11:40:43;24.70;80.10
55785;DHT22;41709;52.536;5.688;2023-09-12T11:43:24;24.60;79.30
55785;DHT22;41709;52.536;5.688;2023-09-12T11:45:50;24.60;80.30
55785;DHT22;41709;52.536;5.688;2023-09-12T11:48:19;24.40;79.20
55785;DHT22;41709;52.536;5.688;2023-09-12T11:50:56;24.50;80.40
55785;DHT22;41709;52.536;5.688;2023-09-12T11:53:23;24.60;79.80
55785;DHT22;41709;52.536;5.688;2023-09-12T11:55:54;24.60;79.90
55785;DHT22;41709;52.536;5.688;2023-09-12T11:58:20;24.60;78.60
55785;DHT22;41709;52.536;5.688;2023-09-12T12:00:52;24.70;79.00
55785;DHT22;41709;52.536;5.688;2023-09-12T12:03:19;24.80;78.90
55785;DHT22;41709;52.536;5.688;2023-09-12T12:05:45;24.80;78.30
55785;DHT22;41709;52.536;5.688;2023-09-12T12:08:12;24.80;78.10
55785;DHT22;41709;52.536;5.688;2023-09-12T12:10:37;24.70;78.50
55785;DHT22;41709;52.536;5.688;2023-09-12T12:13:06;24.70;77.90
55785;DHT22;41709;52.536;5.688;2023-09-12T12:15:36;24.70;78.50
55785;DHT22;41709;52.536;5.688;2023-09-12T12:18:01;24.70;77.50
55785;DHT22;41709;52.536;5.688;2023-09-12T12:20:27;24.80;77.10
55785;DHT22;41709;52.536;5.688;2023-09-12T12:22:54;24.80;76.10
55785;DHT22;41709;52.536;5.688;2023-09-12T12:25:20;24.80;76.30
55785;DHT22;41709;52.536;5.688;2023-09-12T12:27:45;24.90;75.50
55785;DHT22;41709;52.536;5.688;2023-09-12T12:30:12;24.90;74.30
55785;DHT22;41709;52.536;5.688;2023-09-12T12:32:42;24.90;74.70
55785;DHT22;41709;52.536;5.688;2023-09-12T12:35:09;24.90;76.30
55785;DHT22;41709;52.536;5.688;2023-09-12T12:37:36;24.90;76.70
55785;DHT22;41709;52.536;5.688;2023-09-12T12:40:02;24.90;75.80
55785;DHT22;41709;52.536;5.688;2023-09-12T12:42:38;24.80;76.50
55785;DHT22;41709;52.536;5.688;2023-09-12T12:45:14;24.70;77.10
55785;DHT22;41709;52.536;5.688;2023-09-12T12:47:41;24.80;77.60
55785;DHT22;41709;52.536;5.688;2023-09-12T12:50:17;24.80;77.10
55785;DHT22;41709;52.536;5.688;2023-09-12T12:52:47;24.80;77.70
55785;DHT22;41709;52.536;5.688;2023-09-12T12:55:13;24.80;77.10
55785;DHT22;41709;52.536;5.688;2023-09-12T12:57:42;24.90;77.00
55785;DHT22;41709;52.536;5.688;2023-09-12T13:00:13;24.90;77.00
55785;DHT22;41709;52.536;5.688;2023-09-12T13:02:40;24.90;75.30
55785;DHT22;41709;52.536;5.688;2023-09-12T13:05:29;24.80;74.30
55785;DHT22;41709;52.536;5.688;2023-09-12T13:07:55;24.80;76.10
55785;DHT22;41709;52.536;5.688;2023-09-12T13:10:22;24.70;75.00
55785;DHT22;41709;52.536;5.688;2023-09-12T13:12:48;24.70;74.10
55785;DHT22;41709;52.536;5.688;2023-09-12T13:15:14;24.60;75.40
55785;DHT22;41709;52.536;5.688;2023-09-12T13:17:41;24.60;77.30
55785;DHT22;41709;52.536;5.688;2023-09-12T13:20:07;24.70;77.20
55785;DHT22;41709;52.536;5.688;2023-09-12T13:22:37;24.50;76.60
55785;DHT22;41709;52.536;5.688;2023-09-12T13:25:03;24.60;77.10
55785;DHT22;41709;52.536;5.688;2023-09-12T13:27:29;24.60;77.10
55785;DHT22;41709;52.536;5.688;2023-09-12T13:29:54;24.60;76.60
55785;DHT22;41709;52.536;5.688;2023-09-12T13:32:20;24.40;76.60
55785;DHT22;41709;52.536;5.688;2023-09-12T13:34:45;24.50;77.10
55785;DHT22;41709;52.536;5.688;2023-09-12T13:37:11;24.60;77.20
55785;DHT22;41709;52.536;5.688;2023-09-12T13:39:37;24.70;77.80
55785;DHT22;41709;52.536;5.688;2023-09-12T13:42:02;24.70;78.00
55785;DHT22;41709;52.536;5.688;2023-09-12T13:44:29;24.70;77.00
55785;DHT22;41709;52.536;5.688;2023-09-12T13:46:55;24.60;78.00
55785;DHT22;41709;52.536;5.688;2023-09-12T13:49:21;24.50;77.40
55785;DHT22;41709;52.536;5.688;2023-09-12T13:51:46;24.50;77.10
55785;DHT22;41709;52.536;5.688;2023-09-12T13:54:12;24.40;77.50
55785;DHT22;41709;52.536;5.688;2023-09-12T13:56:44;24.40;78.30
55785;DHT22;41709;52.536;5.688;2023-09-12T13:59:09;24.40;78.70
55785;DHT22;41709;52.536;5.688;2023-09-12T14:01:35;24.40;78.50
55785;DHT22;41709;52.536;5.688;2023-09-12T14:04:02;24.40;79.10
55785;DHT22;41709;52.536;5.688;2023-09-12T14:06:27;24.40;78.70
55785;DHT22;41709;52.536;5.688;2023-09-12T14:08:53;24.50;78.60
55785;DHT22;41709;52.536;5.688;2023-09-12T14:11:19;24.50;78.30
55785;DHT22;41709;52.536;5.688;2023-09-12T14:13:44;24.50;77.90
55785;DHT22;41709;52.536;5.688;2023-09-12T14:16:10;24.60;78.40
55785;DHT22;41709;52.536;5.688;2023-09-12T14:18:35;24.60;77.70
55785;DHT22;41709;52.536;5.688;2023-09-12T14:21:02;24.60;79.60
55785;DHT22;41709;52.536;5.688;2023-09-12T14:23:28;24.70;77.40
55785;DHT22;41709;52.536;5.688;2023-09-12T14:25:54;24.90;76.30
55785;DHT22;41709;52.536;5.688;2023-09-12T14:28:19;25.20;75.20
55785;DHT22;41709;52.536;5.688;2023-09-12T14:30:45;25.50;72.30
55785;DHT22;41709;52.536;5.688;2023-09-12T14:33:11;25.70;74.00
55785;DHT22;41709;52.536;5.688;2023-09-12T14:35:37;26.20;72.90
55785;DHT22;41709;52.536;5.688;2023-09-12T14:38:03;26.50;69.80
55785;DHT22;41709;52.536;5.688;2023-09-12T14:40:29;26.80;71.30
55785;DHT22;41709;52.536;5.688;2023-09-12T14:42:55;27.10;70.80
55785;DHT22;41709;52.536;5.688;2023-09-12T14:45:21;27.40;69.20
55785;DHT22;41709;52.536;5.688;2023-09-12T14:47:46;27.60;68.50
55785;DHT22;41709;52.536;5.688;2023-09-12T14:50:12;27.80;68.30
55785;DHT22;41709;52.536;5.688;2023-09-12T14:52:38;27.90;68.00
55785;DHT22;41709;52.536;5.688;2023-09-12T14:55:04;27.90;69.10
55785;DHT22;41709;52.536;5.688;2023-09-12T14:57:30;27.90;68.30
55785;DHT22;41709;52.536;5.688;2023-09-12T14:59:56;27.70;68.20
55785;DHT22;41709;52.536;5.688;2023-09-12T15:02:24;27.50;68.70
55785;DHT22;41709;52.536;5.688;2023-09-12T15:04:49;27.40;68.50
55785;DHT22;41709;52.536;5.688;2023-09-12T15:07:15;27.10;68.50
55785;DHT22;41709;52.536;5.688;2023-09-12T15:09:40;27.00;70.50
55785;DHT22;41709;52.536;5.688;2023-09-12T15:12:07;26.70;71.80
55785;DHT22;41709;52.536;5.688;2023-09-12T15:14:34;26.40;72.80
55785;DHT22;41709;52.536;5.688;2023-09-12T15:16:59;26.30;72.20
55785;DHT22;41709;52.536;5.688;2023-09-12T15:19:25;26.10;71.90
55785;DHT22;41709;52.536;5.688;2023-09-12T15:21:51;25.90;71.50
55785;DHT22;41709;52.536;5.688;2023-09-12T15:24:17;25.70;72.40
55785;DHT22;41709;52.536;5.688;2023-09-12T15:26:42;25.50;73.60
55785;DHT22;41709;52.536;5.688;2023-09-12T15:29:08;25.40;74.50
55785;DHT22;41709;52.536;5.688;2023-09-12T15:31:34;25.30;75.50
55785;DHT22;41709;52.536;5.688;2023-09-12T15:33:59;25.20;76.10
55785;DHT22;41709;52.536;5.688;2023-09-12T15:36:25;25.10;76.40
55785;DHT22;41709;52.536;5.688;2023-09-12T15:38:50;25.10;76.30
55785;DHT22;41709;52.536;5.688;2023-09-12T15:41:17;25.00;76.70
55785;DHT22;41709;52.536;5.688;2023-09-12T15:43:43;24.90;75.50
55785;DHT22;41709;52.536;5.688;2023-09-12T15:46:09;24.80;76.60
55785;DHT22;41709;52.536;5.688;2023-09-12T15:48:34;24.50;77.50
55785;DHT22;41709;52.536;5.688;2023-09-12T15:51:00;24.30;78.00